Sycamore, Illinois
Current Conditions -  °F | °C
As of 7:35 PM on Sunday 23 Nov 2014 (Local Time) from KDKB Reporting Station
Overcast Overcast  
Wind Chill: 45°   Ceiling: 300
Heat Index: 47°   Visibility: NA
Dew Point: 47°   Wind: 6mph
Humidity: 97%   Direction: 110°ESE
Pressure: 29.27"   Gusts: NA
Location:  41.99°N, 88.68°W
Report Text: KDKB 240135Z AUTO 11005KT OVC003 09/08 A2927 RMK AO2 P0003 T00850081 PWINO
Loading
Personal Weather Stations






























Interactive Weather Map New forecast layout! Learn more

10-Day Weather Forecast

Advertisements
Track Severe Weather on mobile